sensor_id;sensor_type;location;lat;lon;timestamp;P1;durP1;ratioP1;P2;durP2;ratioP2
5898;SDS011;2975;50.956;6.962;2023-05-10T00:01:50;6.23;;;5.57;;
5898;SDS011;2975;50.956;6.962;2023-05-10T00:04:16;6.87;;;5.83;;
5898;SDS011;2975;50.956;6.962;2023-05-10T00:06:42;6.30;;;5.70;;
5898;SDS011;2975;50.956;6.962;2023-05-10T00:09:07;7.13;;;6.33;;
5898;SDS011;2975;50.956;6.962;2023-05-10T00:11:33;7.83;;;6.33;;
5898;SDS011;2975;50.956;6.962;2023-05-10T00:13:58;8.13;;;6.53;;
5898;SDS011;2975;50.956;6.962;2023-05-10T00:16:24;7.10;;;6.40;;
5898;SDS011;2975;50.956;6.962;2023-05-10T00:18:50;7.70;;;6.90;;
5898;SDS011;2975;50.956;6.962;2023-05-10T00:21:15;6.73;;;6.13;;
5898;SDS011;2975;50.956;6.962;2023-05-10T00:23:41;7.13;;;6.43;;
5898;SDS011;2975;50.956;6.962;2023-05-10T00:26:06;8.00;;;7.00;;
5898;SDS011;2975;50.956;6.962;2023-05-10T00:28:32;7.63;;;6.67;;
5898;SDS011;2975;50.956;6.962;2023-05-10T00:30:57;9.67;;;7.27;;
5898;SDS011;2975;50.956;6.962;2023-05-10T00:33:23;8.03;;;7.07;;
5898;SDS011;2975;50.956;6.962;2023-05-10T00:35:48;8.20;;;7.27;;
5898;SDS011;2975;50.956;6.962;2023-05-10T00:38:14;8.63;;;7.03;;
5898;SDS011;2975;50.956;6.962;2023-05-10T00:40:40;10.33;;;8.77;;
5898;SDS011;2975;50.956;6.962;2023-05-10T00:43:06;11.43;;;8.80;;
5898;SDS011;2975;50.956;6.962;2023-05-10T00:45:32;9.93;;;8.50;;
5898;SDS011;2975;50.956;6.962;2023-05-10T00:47:59;10.93;;;8.63;;
5898;SDS011;2975;50.956;6.962;2023-05-10T00:50:27;11.80;;;8.47;;
5898;SDS011;2975;50.956;6.962;2023-05-10T00:52:53;10.53;;;8.93;;
5898;SDS011;2975;50.956;6.962;2023-05-10T00:55:20;12.70;;;9.17;;
5898;SDS011;2975;50.956;6.962;2023-05-10T00:57:46;10.77;;;8.57;;
5898;SDS011;2975;50.956;6.962;2023-05-10T01:00:12;12.33;;;9.13;;
5898;SDS011;2975;50.956;6.962;2023-05-10T01:02:42;11.30;;;9.30;;
5898;SDS011;2975;50.956;6.962;2023-05-10T01:05:11;12.13;;;9.17;;
5898;SDS011;2975;50.956;6.962;2023-05-10T01:07:37;11.87;;;8.70;;
5898;SDS011;2975;50.956;6.962;2023-05-10T01:10:04;11.67;;;8.90;;
5898;SDS011;2975;50.956;6.962;2023-05-10T01:12:31;11.73;;;8.80;;
5898;SDS011;2975;50.956;6.962;2023-05-10T01:14:57;12.13;;;9.23;;
5898;SDS011;2975;50.956;6.962;2023-05-10T01:17:22;13.70;;;9.17;;
5898;SDS011;2975;50.956;6.962;2023-05-10T01:19:49;12.63;;;9.20;;
5898;SDS011;2975;50.956;6.962;2023-05-10T01:36:31;12.17;;;9.67;;
5898;SDS011;2975;50.956;6.962;2023-05-10T01:39:09;12.30;;;9.17;;
5898;SDS011;2975;50.956;6.962;2023-05-10T01:47:07;11.77;;;9.17;;
5898;SDS011;2975;50.956;6.962;2023-05-10T01:49:37;10.00;;;7.97;;
5898;SDS011;2975;50.956;6.962;2023-05-10T01:52:09;14.33;;;8.73;;
5898;SDS011;2975;50.956;6.962;2023-05-10T01:54:44;11.60;;;8.83;;
5898;SDS011;2975;50.956;6.962;2023-05-10T01:57:15;11.67;;;8.70;;
5898;SDS011;2975;50.956;6.962;2023-05-10T01:59:44;13.27;;;8.87;;
5898;SDS011;2975;50.956;6.962;2023-05-10T02:02:14;12.13;;;9.60;;
5898;SDS011;2975;50.956;6.962;2023-05-10T02:04:42;9.80;;;7.87;;
5898;SDS011;2975;50.956;6.962;2023-05-10T02:07:09;10.03;;;7.70;;
5898;SDS011;2975;50.956;6.962;2023-05-10T02:09:36;6.70;;;5.63;;
5898;SDS011;2975;50.956;6.962;2023-05-10T02:12:03;5.03;;;4.53;;
5898;SDS011;2975;50.956;6.962;2023-05-10T02:14:32;5.47;;;4.80;;
5898;SDS011;2975;50.956;6.962;2023-05-10T02:17:02;6.07;;;4.83;;
5898;SDS011;2975;50.956;6.962;2023-05-10T02:19:30;5.83;;;3.70;;
5898;SDS011;2975;50.956;6.962;2023-05-10T02:21:57;5.80;;;4.57;;
5898;SDS011;2975;50.956;6.962;2023-05-10T02:24:24;5.87;;;4.50;;
5898;SDS011;2975;50.956;6.962;2023-05-10T02:26:51;6.67;;;4.40;;
5898;SDS011;2975;50.956;6.962;2023-05-10T02:29:19;4.83;;;4.17;;
5898;SDS011;2975;50.956;6.962;2023-05-10T02:31:45;8.00;;;5.07;;
5898;SDS011;2975;50.956;6.962;2023-05-10T02:34:12;6.93;;;5.10;;
5898;SDS011;2975;50.956;6.962;2023-05-10T02:36:38;8.87;;;5.20;;
5898;SDS011;2975;50.956;6.962;2023-05-10T02:39:06;6.03;;;4.73;;
5898;SDS011;2975;50.956;6.962;2023-05-10T02:41:37;6.07;;;4.80;;
5898;SDS011;2975;50.956;6.962;2023-05-10T02:44:03;6.37;;;4.93;;
5898;SDS011;2975;50.956;6.962;2023-05-10T02:46:32;7.90;;;5.00;;
5898;SDS011;2975;50.956;6.962;2023-05-10T02:48:58;6.30;;;5.17;;
5898;SDS011;2975;50.956;6.962;2023-05-10T02:51:25;6.30;;;4.60;;
5898;SDS011;2975;50.956;6.962;2023-05-10T02:53:56;7.20;;;4.30;;
5898;SDS011;2975;50.956;6.962;2023-05-10T02:56:29;6.30;;;4.30;;
5898;SDS011;2975;50.956;6.962;2023-05-10T02:58:59;11.43;;;4.80;;
5898;SDS011;2975;50.956;6.962;2023-05-10T03:01:24;6.43;;;3.97;;
5898;SDS011;2975;50.956;6.962;2023-05-10T03:03:50;4.97;;;3.53;;
5898;SDS011;2975;50.956;6.962;2023-05-10T03:06:16;6.23;;;4.23;;
5898;SDS011;2975;50.956;6.962;2023-05-10T03:08:42;5.17;;;4.17;;
5898;SDS011;2975;50.956;6.962;2023-05-10T03:11:32;5.50;;;4.40;;
5898;SDS011;2975;50.956;6.962;2023-05-10T03:14:34;6.27;;;4.97;;
5898;SDS011;2975;50.956;6.962;2023-05-10T03:17:22;5.23;;;3.83;;
5898;SDS011;2975;50.956;6.962;2023-05-10T03:19:55;7.97;;;4.90;;
5898;SDS011;2975;50.956;6.962;2023-05-10T03:22:31;6.67;;;5.10;;
5898;SDS011;2975;50.956;6.962;2023-05-10T03:25:10;8.23;;;4.77;;
5898;SDS011;2975;50.956;6.962;2023-05-10T03:27:36;6.80;;;5.07;;
5898;SDS011;2975;50.956;6.962;2023-05-10T03:30:07;5.40;;;4.77;;
5898;SDS011;2975;50.956;6.962;2023-05-10T03:32:35;7.23;;;5.43;;
5898;SDS011;2975;50.956;6.962;2023-05-10T03:35:01;7.73;;;5.33;;
5898;SDS011;2975;50.956;6.962;2023-05-10T03:37:32;7.67;;;5.97;;
5898;SDS011;2975;50.956;6.962;2023-05-10T03:39:57;7.97;;;5.60;;
5898;SDS011;2975;50.956;6.962;2023-05-10T03:42:23;9.03;;;6.23;;
5898;SDS011;2975;50.956;6.962;2023-05-10T03:44:49;9.13;;;5.77;;
5898;SDS011;2975;50.956;6.962;2023-05-10T03:47:14;10.43;;;6.23;;
5898;SDS011;2975;50.956;6.962;2023-05-10T03:49:40;8.00;;;6.20;;
5898;SDS011;2975;50.956;6.962;2023-05-10T03:52:05;10.17;;;6.53;;
5898;SDS011;2975;50.956;6.962;2023-05-10T03:54:31;8.73;;;5.90;;
5898;SDS011;2975;50.956;6.962;2023-05-10T03:56:57;10.07;;;6.60;;
5898;SDS011;2975;50.956;6.962;2023-05-10T03:59:22;8.80;;;6.20;;
5898;SDS011;2975;50.956;6.962;2023-05-10T04:01:48;8.67;;;6.17;;
5898;SDS011;2975;50.956;6.962;2023-05-10T04:04:13;8.63;;;6.83;;
5898;SDS011;2975;50.956;6.962;2023-05-10T04:06:39;10.87;;;7.20;;
5898;SDS011;2975;50.956;6.962;2023-05-10T04:09:05;12.57;;;8.10;;
5898;SDS011;2975;50.956;6.962;2023-05-10T04:11:30;12.23;;;7.60;;
5898;SDS011;2975;50.956;6.962;2023-05-10T04:13:56;11.60;;;8.07;;
5898;SDS011;2975;50.956;6.962;2023-05-10T04:16:21;13.27;;;8.50;;
5898;SDS011;2975;50.956;6.962;2023-05-10T04:18:47;14.57;;;8.60;;
5898;SDS011;2975;50.956;6.962;2023-05-10T04:21:13;14.30;;;8.27;;
5898;SDS011;2975;50.956;6.962;2023-05-10T04:23:39;12.70;;;8.77;;
5898;SDS011;2975;50.956;6.962;2023-05-10T04:26:05;13.93;;;8.43;;
5898;SDS011;2975;50.956;6.962;2023-05-10T04:28:31;12.73;;;8.70;;
5898;SDS011;2975;50.956;6.962;2023-05-10T04:31:05;14.97;;;9.50;;
5898;SDS011;2975;50.956;6.962;2023-05-10T04:33:33;13.43;;;9.03;;
5898;SDS011;2975;50.956;6.962;2023-05-10T04:35:59;14.67;;;10.50;;
5898;SDS011;2975;50.956;6.962;2023-05-10T04:38:25;15.90;;;10.77;;
5898;SDS011;2975;50.956;6.962;2023-05-10T04:40:51;14.13;;;10.30;;
5898;SDS011;2975;50.956;6.962;2023-05-10T04:43:17;14.53;;;10.03;;
5898;SDS011;2975;50.956;6.962;2023-05-10T04:45:43;17.13;;;11.17;;
5898;SDS011;2975;50.956;6.962;2023-05-10T04:48:09;19.23;;;11.93;;
5898;SDS011;2975;50.956;6.962;2023-05-10T04:50:34;17.47;;;10.67;;
5898;SDS011;2975;50.956;6.962;2023-05-10T04:53:00;13.60;;;9.87;;
5898;SDS011;2975;50.956;6.962;2023-05-10T04:55:26;16.90;;;10.37;;
5898;SDS011;2975;50.956;6.962;2023-05-10T04:57:52;17.60;;;10.73;;
5898;SDS011;2975;50.956;6.962;2023-05-10T05:00:18;17.97;;;11.37;;
5898;SDS011;2975;50.956;6.962;2023-05-10T05:02:44;14.90;;;10.67;;
5898;SDS011;2975;50.956;6.962;2023-05-10T05:05:10;17.23;;;10.50;;
5898;SDS011;2975;50.956;6.962;2023-05-10T05:07:36;15.60;;;10.20;;
5898;SDS011;2975;50.956;6.962;2023-05-10T05:10:03;16.90;;;10.53;;
5898;SDS011;2975;50.956;6.962;2023-05-10T05:12:32;14.53;;;10.17;;
5898;SDS011;2975;50.956;6.962;2023-05-10T05:14:58;14.00;;;10.13;;
5898;SDS011;2975;50.956;6.962;2023-05-10T05:17:24;13.07;;;9.67;;
5898;SDS011;2975;50.956;6.962;2023-05-10T05:19:50;12.90;;;10.07;;
5898;SDS011;2975;50.956;6.962;2023-05-10T05:22:15;15.30;;;9.50;;
5898;SDS011;2975;50.956;6.962;2023-05-10T05:24:41;13.40;;;10.07;;
5898;SDS011;2975;50.956;6.962;2023-05-10T05:27:07;13.20;;;9.83;;
5898;SDS011;2975;50.956;6.962;2023-05-10T05:29:32;14.37;;;9.50;;
5898;SDS011;2975;50.956;6.962;2023-05-10T05:31:58;13.10;;;9.00;;
5898;SDS011;2975;50.956;6.962;2023-05-10T05:34:24;18.57;;;9.83;;
5898;SDS011;2975;50.956;6.962;2023-05-10T05:36:50;14.20;;;10.37;;
5898;SDS011;2975;50.956;6.962;2023-05-10T05:39:16;16.97;;;10.53;;
5898;SDS011;2975;50.956;6.962;2023-05-10T05:41:41;15.47;;;10.13;;
5898;SDS011;2975;50.956;6.962;2023-05-10T05:44:07;12.73;;;9.07;;
5898;SDS011;2975;50.956;6.962;2023-05-10T05:46:33;15.10;;;9.13;;
5898;SDS011;2975;50.956;6.962;2023-05-10T05:48:58;15.40;;;8.57;;
5898;SDS011;2975;50.956;6.962;2023-05-10T05:51:24;15.37;;;9.27;;
5898;SDS011;2975;50.956;6.962;2023-05-10T05:53:50;15.90;;;9.20;;
5898;SDS011;2975;50.956;6.962;2023-05-10T05:56:15;19.57;;;9.33;;
5898;SDS011;2975;50.956;6.962;2023-05-10T05:58:42;15.03;;;8.53;;
5898;SDS011;2975;50.956;6.962;2023-05-10T06:01:08;17.00;;;8.80;;
5898;SDS011;2975;50.956;6.962;2023-05-10T06:03:34;18.13;;;9.47;;
5898;SDS011;2975;50.956;6.962;2023-05-10T06:05:59;19.57;;;9.17;;
5898;SDS011;2975;50.956;6.962;2023-05-10T06:08:25;16.20;;;8.63;;
5898;SDS011;2975;50.956;6.962;2023-05-10T06:10:51;15.60;;;8.53;;
5898;SDS011;2975;50.956;6.962;2023-05-10T06:13:16;13.60;;;8.77;;
5898;SDS011;2975;50.956;6.962;2023-05-10T06:15:42;13.47;;;9.00;;
5898;SDS011;2975;50.956;6.962;2023-05-10T06:18:07;12.73;;;7.67;;
5898;SDS011;2975;50.956;6.962;2023-05-10T06:20:33;12.70;;;7.90;;
5898;SDS011;2975;50.956;6.962;2023-05-10T06:22:59;13.20;;;8.97;;
5898;SDS011;2975;50.956;6.962;2023-05-10T06:25:24;13.87;;;8.10;;
5898;SDS011;2975;50.956;6.962;2023-05-10T06:27:50;11.63;;;7.33;;
5898;SDS011;2975;50.956;6.962;2023-05-10T06:30:20;13.53;;;8.13;;
5898;SDS011;2975;50.956;6.962;2023-05-10T06:32:47;12.93;;;7.40;;
5898;SDS011;2975;50.956;6.962;2023-05-10T06:35:13;16.30;;;8.80;;
5898;SDS011;2975;50.956;6.962;2023-05-10T06:37:39;18.30;;;8.50;;
5898;SDS011;2975;50.956;6.962;2023-05-10T06:40:05;11.23;;;7.67;;
5898;SDS011;2975;50.956;6.962;2023-05-10T06:42:31;18.27;;;8.87;;
5898;SDS011;2975;50.956;6.962;2023-05-10T06:44:57;13.50;;;8.17;;
5898;SDS011;2975;50.956;6.962;2023-05-10T06:47:22;14.67;;;8.63;;
5898;SDS011;2975;50.956;6.962;2023-05-10T06:49:48;13.60;;;8.50;;
5898;SDS011;2975;50.956;6.962;2023-05-10T06:52:14;15.77;;;9.47;;
5898;SDS011;2975;50.956;6.962;2023-05-10T06:54:39;16.03;;;8.93;;
5898;SDS011;2975;50.956;6.962;2023-05-10T06:57:05;15.97;;;10.70;;
5898;SDS011;2975;50.956;6.962;2023-05-10T06:59:31;15.47;;;9.40;;
5898;SDS011;2975;50.956;6.962;2023-05-10T07:01:56;17.67;;;10.40;;
5898;SDS011;2975;50.956;6.962;2023-05-10T07:04:22;18.63;;;9.77;;
5898;SDS011;2975;50.956;6.962;2023-05-10T07:06:48;18.63;;;9.47;;
5898;SDS011;2975;50.956;6.962;2023-05-10T07:09:14;18.13;;;9.33;;
5898;SDS011;2975;50.956;6.962;2023-05-10T07:11:40;15.93;;;9.77;;
5898;SDS011;2975;50.956;6.962;2023-05-10T07:14:06;17.47;;;9.77;;
5898;SDS011;2975;50.956;6.962;2023-05-10T07:16:32;16.07;;;10.63;;
5898;SDS011;2975;50.956;6.962;2023-05-10T07:18:57;16.43;;;9.30;;
5898;SDS011;2975;50.956;6.962;2023-05-10T07:21:23;17.20;;;10.40;;
5898;SDS011;2975;50.956;6.962;2023-05-10T07:23:49;17.23;;;10.20;;
5898;SDS011;2975;50.956;6.962;2023-05-10T07:26:15;13.40;;;9.07;;
5898;SDS011;2975;50.956;6.962;2023-05-10T07:28:41;15.03;;;9.73;;
5898;SDS011;2975;50.956;6.962;2023-05-10T07:31:07;13.13;;;9.13;;
5898;SDS011;2975;50.956;6.962;2023-05-10T07:33:32;13.53;;;9.27;;
5898;SDS011;2975;50.956;6.962;2023-05-10T07:35:58;16.33;;;9.57;;
5898;SDS011;2975;50.956;6.962;2023-05-10T07:38:23;15.70;;;8.90;;
5898;SDS011;2975;50.956;6.962;2023-05-10T07:40:49;15.67;;;8.67;;
5898;SDS011;2975;50.956;6.962;2023-05-10T07:43:15;13.37;;;8.33;;
5898;SDS011;2975;50.956;6.962;2023-05-10T07:45:40;16.33;;;8.40;;
5898;SDS011;2975;50.956;6.962;2023-05-10T07:48:06;12.87;;;8.20;;
5898;SDS011;2975;50.956;6.962;2023-05-10T07:50:32;15.13;;;8.20;;
5898;SDS011;2975;50.956;6.962;2023-05-10T07:52:57;11.97;;;8.77;;
5898;SDS011;2975;50.956;6.962;2023-05-10T07:55:23;12.60;;;7.97;;
5898;SDS011;2975;50.956;6.962;2023-05-10T07:57:48;14.93;;;8.03;;
5898;SDS011;2975;50.956;6.962;2023-05-10T08:00:16;12.50;;;8.20;;
5898;SDS011;2975;50.956;6.962;2023-05-10T08:02:43;10.73;;;7.40;;
5898;SDS011;2975;50.956;6.962;2023-05-10T08:05:08;12.00;;;7.83;;
5898;SDS011;2975;50.956;6.962;2023-05-10T08:07:34;15.10;;;7.70;;
5898;SDS011;2975;50.956;6.962;2023-05-10T08:10:00;10.43;;;7.93;;
5898;SDS011;2975;50.956;6.962;2023-05-10T08:12:26;11.67;;;8.23;;
5898;SDS011;2975;50.956;6.962;2023-05-10T08:14:52;14.00;;;8.47;;
5898;SDS011;2975;50.956;6.962;2023-05-10T08:17:17;15.03;;;8.63;;
5898;SDS011;2975;50.956;6.962;2023-05-10T08:19:43;14.03;;;7.97;;
5898;SDS011;2975;50.956;6.962;2023-05-10T08:22:09;14.37;;;8.20;;
5898;SDS011;2975;50.956;6.962;2023-05-10T08:24:35;11.67;;;8.53;;
5898;SDS011;2975;50.956;6.962;2023-05-10T08:27:03;13.30;;;9.13;;
5898;SDS011;2975;50.956;6.962;2023-05-10T08:29:32;10.73;;;7.67;;
5898;SDS011;2975;50.956;6.962;2023-05-10T08:31:58;10.80;;;7.63;;
5898;SDS011;2975;50.956;6.962;2023-05-10T08:34:23;9.03;;;6.50;;
5898;SDS011;2975;50.956;6.962;2023-05-10T08:36:49;13.27;;;7.70;;
5898;SDS011;2975;50.956;6.962;2023-05-10T08:39:16;8.90;;;6.43;;
5898;SDS011;2975;50.956;6.962;2023-05-10T08:41:41;11.43;;;6.07;;
5898;SDS011;2975;50.956;6.962;2023-05-10T08:44:09;11.93;;;6.23;;
5898;SDS011;2975;50.956;6.962;2023-05-10T08:46:36;10.38;;;6.25;;
5898;SDS011;2975;50.956;6.962;2023-05-10T08:49:08;6.23;;;5.23;;
5898;SDS011;2975;50.956;6.962;2023-05-10T08:51:36;7.40;;;5.67;;
5898;SDS011;2975;50.956;6.962;2023-05-10T08:54:08;10.20;;;5.87;;
5898;SDS011;2975;50.956;6.962;2023-05-10T08:56:34;7.63;;;5.67;;
5898;SDS011;2975;50.956;6.962;2023-05-10T08:59:01;7.93;;;5.63;;
5898;SDS011;2975;50.956;6.962;2023-05-10T09:01:26;9.13;;;6.70;;
5898;SDS011;2975;50.956;6.962;2023-05-10T09:03:53;8.93;;;6.83;;
5898;SDS011;2975;50.956;6.962;2023-05-10T09:06:18;9.10;;;6.43;;
5898;SDS011;2975;50.956;6.962;2023-05-10T09:08:44;10.50;;;7.07;;
5898;SDS011;2975;50.956;6.962;2023-05-10T09:11:11;13.23;;;9.60;;
5898;SDS011;2975;50.956;6.962;2023-05-10T09:13:37;16.37;;;10.17;;
5898;SDS011;2975;50.956;6.962;2023-05-10T09:16:03;16.70;;;13.50;;
5898;SDS011;2975;50.956;6.962;2023-05-10T09:18:29;20.53;;;10.57;;
5898;SDS011;2975;50.956;6.962;2023-05-10T09:20:55;16.77;;;11.60;;
5898;SDS011;2975;50.956;6.962;2023-05-10T09:23:21;15.63;;;10.90;;
5898;SDS011;2975;50.956;6.962;2023-05-10T09:25:47;17.73;;;11.17;;
5898;SDS011;2975;50.956;6.962;2023-05-10T09:28:12;16.60;;;10.83;;
5898;SDS011;2975;50.956;6.962;2023-05-10T09:30:38;18.23;;;12.07;;
5898;SDS011;2975;50.956;6.962;2023-05-10T09:33:04;19.53;;;11.87;;
5898;SDS011;2975;50.956;6.962;2023-05-10T09:35:30;22.60;;;12.03;;
5898;SDS011;2975;50.956;6.962;2023-05-10T09:37:59;17.43;;;12.03;;
5898;SDS011;2975;50.956;6.962;2023-05-10T09:40:30;19.37;;;12.67;;
5898;SDS011;2975;50.956;6.962;2023-05-10T09:43:04;21.17;;;13.63;;
5898;SDS011;2975;50.956;6.962;2023-05-10T09:45:33;20.50;;;12.23;;
5898;SDS011;2975;50.956;6.962;2023-05-10T09:48:01;21.43;;;11.87;;
5898;SDS011;2975;50.956;6.962;2023-05-10T09:50:27;20.33;;;11.30;;
5898;SDS011;2975;50.956;6.962;2023-05-10T09:55:24;20.63;;;10.67;;
5898;SDS011;2975;50.956;6.962;2023-05-10T09:57:58;15.80;;;9.10;;
5898;SDS011;2975;50.956;6.962;2023-05-10T10:00:25;13.17;;;9.07;;
5898;SDS011;2975;50.956;6.962;2023-05-10T10:02:55;16.10;;;8.50;;
5898;SDS011;2975;50.956;6.962;2023-05-10T10:05:28;13.37;;;7.83;;
5898;SDS011;2975;50.956;6.962;2023-05-10T10:07:58;12.77;;;7.60;;
5898;SDS011;2975;50.956;6.962;2023-05-10T10:10:24;13.07;;;9.03;;
5898;SDS011;2975;50.956;6.962;2023-05-10T10:12:51;12.30;;;7.60;;
5898;SDS011;2975;50.956;6.962;2023-05-10T10:15:16;11.47;;;6.93;;
5898;SDS011;2975;50.956;6.962;2023-05-10T10:17:43;10.67;;;7.30;;
5898;SDS011;2975;50.956;6.962;2023-05-10T10:20:08;11.97;;;7.20;;
5898;SDS011;2975;50.956;6.962;2023-05-10T10:22:34;10.10;;;6.77;;
5898;SDS011;2975;50.956;6.962;2023-05-10T10:25:01;9.50;;;6.73;;
5898;SDS011;2975;50.956;6.962;2023-05-10T10:27:34;10.13;;;6.30;;
5898;SDS011;2975;50.956;6.962;2023-05-10T10:30:28;10.83;;;7.40;;
5898;SDS011;2975;50.956;6.962;2023-05-10T10:35:53;8.87;;;6.60;;
5898;SDS011;2975;50.956;6.962;2023-05-10T10:38:20;10.90;;;6.97;;
5898;SDS011;2975;50.956;6.962;2023-05-10T10:40:46;10.33;;;6.33;;
5898;SDS011;2975;50.956;6.962;2023-05-10T10:43:25;8.77;;;6.60;;
5898;SDS011;2975;50.956;6.962;2023-05-10T10:46:11;8.97;;;6.10;;
5898;SDS011;2975;50.956;6.962;2023-05-10T10:48:38;9.57;;;5.63;;
5898;SDS011;2975;50.956;6.962;2023-05-10T10:51:05;8.60;;;6.23;;
5898;SDS011;2975;50.956;6.962;2023-05-10T10:53:31;8.57;;;5.27;;
5898;SDS011;2975;50.956;6.962;2023-05-10T10:56:09;9.00;;;5.00;;
5898;SDS011;2975;50.956;6.962;2023-05-10T10:58:38;10.20;;;4.97;;
5898;SDS011;2975;50.956;6.962;2023-05-10T11:01:11;7.80;;;5.07;;
5898;SDS011;2975;50.956;6.962;2023-05-10T11:06:33;8.90;;;5.43;;
5898;SDS011;2975;50.956;6.962;2023-05-10T11:09:06;10.60;;;5.83;;
5898;SDS011;2975;50.956;6.962;2023-05-10T11:11:34;11.40;;;6.63;;
5898;SDS011;2975;50.956;6.962;2023-05-10T11:14:03;10.47;;;6.30;;
5898;SDS011;2975;50.956;6.962;2023-05-10T11:16:43;8.23;;;5.67;;
5898;SDS011;2975;50.956;6.962;2023-05-10T11:19:16;7.77;;;5.13;;
5898;SDS011;2975;50.956;6.962;2023-05-10T11:21:46;7.00;;;5.20;;
5898;SDS011;2975;50.956;6.962;2023-05-10T11:24:27;7.23;;;4.40;;
5898;SDS011;2975;50.956;6.962;2023-05-10T11:26:53;4.97;;;3.50;;
5898;SDS011;2975;50.956;6.962;2023-05-10T11:29:19;5.20;;;3.87;;
5898;SDS011;2975;50.956;6.962;2023-05-10T11:31:45;7.30;;;3.37;;
5898;SDS011;2975;50.956;6.962;2023-05-10T11:34:12;4.07;;;2.83;;
5898;SDS011;2975;50.956;6.962;2023-05-10T11:36:55;3.20;;;2.43;;
5898;SDS011;2975;50.956;6.962;2023-05-10T11:39:25;4.83;;;3.13;;
5898;SDS011;2975;50.956;6.962;2023-05-10T11:41:52;3.57;;;2.90;;
5898;SDS011;2975;50.956;6.962;2023-05-10T11:44:18;3.67;;;2.97;;
5898;SDS011;2975;50.956;6.962;2023-05-10T11:46:43;5.40;;;3.13;;
5898;SDS011;2975;50.956;6.962;2023-05-10T11:49:09;3.50;;;2.70;;
5898;SDS011;2975;50.956;6.962;2023-05-10T11:51:36;3.40;;;2.40;;
5898;SDS011;2975;50.956;6.962;2023-05-10T11:54:04;3.97;;;2.50;;
5898;SDS011;2975;50.956;6.962;2023-05-10T11:56:32;2.17;;;1.67;;
5898;SDS011;2975;50.956;6.962;2023-05-10T11:58:58;1.67;;;1.57;;
5898;SDS011;2975;50.956;6.962;2023-05-10T12:01:26;2.30;;;1.67;;
5898;SDS011;2975;50.956;6.962;2023-05-10T12:03:53;2.57;;;1.90;;
5898;SDS011;2975;50.956;6.962;2023-05-10T12:06:20;3.40;;;1.87;;
5898;SDS011;2975;50.956;6.962;2023-05-10T12:08:47;6.73;;;1.93;;
5898;SDS011;2975;50.956;6.962;2023-05-10T12:11:13;1.50;;;1.40;;
5898;SDS011;2975;50.956;6.962;2023-05-10T12:13:41;1.87;;;1.63;;
5898;SDS011;2975;50.956;6.962;2023-05-10T12:16:17;2.00;;;1.90;;
5898;SDS011;2975;50.956;6.962;2023-05-10T12:18:57;2.28;;;2.08;;
5898;SDS011;2975;50.956;6.962;2023-05-10T12:21:23;2.00;;;1.90;;
5898;SDS011;2975;50.956;6.962;2023-05-10T12:23:50;2.30;;;2.10;;
5898;SDS011;2975;50.956;6.962;2023-05-10T12:26:24;2.30;;;2.03;;
5898;SDS011;2975;50.956;6.962;2023-05-10T12:28:52;1.90;;;1.80;;
5898;SDS011;2975;50.956;6.962;2023-05-10T12:31:18;2.17;;;1.90;;
5898;SDS011;2975;50.956;6.962;2023-05-10T12:33:44;1.87;;;1.77;;
5898;SDS011;2975;50.956;6.962;2023-05-10T12:36:12;1.60;;;1.50;;
5898;SDS011;2975;50.956;6.962;2023-05-10T12:38:39;1.63;;;1.53;;
5898;SDS011;2975;50.956;6.962;2023-05-10T12:41:11;1.63;;;1.53;;
5898;SDS011;2975;50.956;6.962;2023-05-10T12:43:38;1.60;;;1.50;;
5898;SDS011;2975;50.956;6.962;2023-05-10T12:46:08;2.50;;;2.00;;
5898;SDS011;2975;50.956;6.962;2023-05-10T12:48:42;2.10;;;2.00;;
5898;SDS011;2975;50.956;6.962;2023-05-10T12:51:09;2.93;;;2.00;;
5898;SDS011;2975;50.956;6.962;2023-05-10T12:53:37;3.33;;;2.00;;
5898;SDS011;2975;50.956;6.962;2023-05-10T12:56:03;1.90;;;1.70;;
5898;SDS011;2975;50.956;6.962;2023-05-10T12:58:29;2.43;;;1.60;;
5898;SDS011;2975;50.956;6.962;2023-05-10T13:00:54;3.57;;;1.60;;
5898;SDS011;2975;50.956;6.962;2023-05-10T13:03:21;1.47;;;1.37;;
5898;SDS011;2975;50.956;6.962;2023-05-10T13:05:47;3.03;;;1.73;;
5898;SDS011;2975;50.956;6.962;2023-05-10T13:08:13;1.40;;;1.30;;
5898;SDS011;2975;50.956;6.962;2023-05-10T13:10:38;1.70;;;1.20;;
5898;SDS011;2975;50.956;6.962;2023-05-10T13:13:04;1.23;;;1.20;;
5898;SDS011;2975;50.956;6.962;2023-05-10T13:15:30;1.50;;;1.40;;
5898;SDS011;2975;50.956;6.962;2023-05-10T13:17:55;2.38;;;1.90;;
5898;SDS011;2975;50.956;6.962;2023-05-10T13:20:21;2.33;;;1.57;;
5898;SDS011;2975;50.956;6.962;2023-05-10T13:22:47;1.50;;;1.40;;
5898;SDS011;2975;50.956;6.962;2023-05-10T13:25:12;1.30;;;1.20;;
5898;SDS011;2975;50.956;6.962;2023-05-10T13:27:41;1.30;;;1.20;;
5898;SDS011;2975;50.956;6.962;2023-05-10T13:30:07;1.70;;;1.37;;
5898;SDS011;2975;50.956;6.962;2023-05-10T13:32:33;2.07;;;1.50;;
5898;SDS011;2975;50.956;6.962;2023-05-10T13:34:59;1.40;;;1.30;;
5898;SDS011;2975;50.956;6.962;2023-05-10T13:37:25;1.47;;;1.37;;
5898;SDS011;2975;50.956;6.962;2023-05-10T13:39:50;1.33;;;1.23;;
5898;SDS011;2975;50.956;6.962;2023-05-10T13:42:16;2.28;;;1.48;;
5898;SDS011;2975;50.956;6.962;2023-05-10T13:44:42;1.30;;;1.20;;
5898;SDS011;2975;50.956;6.962;2023-05-10T13:47:08;1.30;;;1.20;;
5898;SDS011;2975;50.956;6.962;2023-05-10T13:49:33;1.20;;;1.10;;
5898;SDS011;2975;50.956;6.962;2023-05-10T13:51:59;1.20;;;1.10;;
5898;SDS011;2975;50.956;6.962;2023-05-10T13:54:31;1.20;;;1.10;;
5898;SDS011;2975;50.956;6.962;2023-05-10T13:57:00;1.10;;;1.00;;
5898;SDS011;2975;50.956;6.962;2023-05-10T13:59:26;1.30;;;1.20;;
5898;SDS011;2975;50.956;6.962;2023-05-10T14:01:52;1.27;;;1.20;;
5898;SDS011;2975;50.956;6.962;2023-05-10T14:04:17;1.60;;;1.27;;
5898;SDS011;2975;50.956;6.962;2023-05-10T14:06:43;1.13;;;1.07;;
5898;SDS011;2975;50.956;6.962;2023-05-10T14:09:08;0.83;;;0.83;;
5898;SDS011;2975;50.956;6.962;2023-05-10T14:11:34;0.90;;;0.90;;
5898;SDS011;2975;50.956;6.962;2023-05-10T14:14:00;1.37;;;0.97;;
5898;SDS011;2975;50.956;6.962;2023-05-10T14:16:25;0.90;;;0.90;;
5898;SDS011;2975;50.956;6.962;2023-05-10T14:18:52;0.80;;;0.80;;
5898;SDS011;2975;50.956;6.962;2023-05-10T14:21:17;1.97;;;1.03;;
5898;SDS011;2975;50.956;6.962;2023-05-10T14:23:43;1.73;;;0.90;;
5898;SDS011;2975;50.956;6.962;2023-05-10T14:26:09;0.83;;;0.70;;
5898;SDS011;2975;50.956;6.962;2023-05-10T14:28:34;0.87;;;0.70;;
5898;SDS011;2975;50.956;6.962;2023-05-10T14:31:00;0.97;;;0.70;;
5898;SDS011;2975;50.956;6.962;2023-05-10T14:33:26;0.87;;;0.70;;
5898;SDS011;2975;50.956;6.962;2023-05-10T14:35:51;1.00;;;0.73;;
5898;SDS011;2975;50.956;6.962;2023-05-10T14:38:19;1.13;;;0.90;;
5898;SDS011;2975;50.956;6.962;2023-05-10T14:40:44;3.53;;;1.00;;
5898;SDS011;2975;50.956;6.962;2023-05-10T14:43:10;1.70;;;0.90;;
5898;SDS011;2975;50.956;6.962;2023-05-10T14:45:35;0.90;;;0.80;;
5898;SDS011;2975;50.956;6.962;2023-05-10T14:48:01;4.57;;;2.17;;
5898;SDS011;2975;50.956;6.962;2023-05-10T14:50:29;1.45;;;1.05;;
5898;SDS011;2975;50.956;6.962;2023-05-10T14:52:56;2.20;;;1.37;;
5898;SDS011;2975;50.956;6.962;2023-05-10T14:55:21;1.33;;;1.10;;
5898;SDS011;2975;50.956;6.962;2023-05-10T14:57:47;1.33;;;1.17;;
5898;SDS011;2975;50.956;6.962;2023-05-10T15:00:14;1.40;;;1.20;;
5898;SDS011;2975;50.956;6.962;2023-05-10T15:02:40;1.90;;;1.33;;
5898;SDS011;2975;50.956;6.962;2023-05-10T15:05:06;3.67;;;1.80;;
5898;SDS011;2975;50.956;6.962;2023-05-10T15:07:32;0.90;;;0.90;;
5898;SDS011;2975;50.956;6.962;2023-05-10T15:09:58;1.13;;;1.03;;
5898;SDS011;2975;50.956;6.962;2023-05-10T15:12:23;1.30;;;1.10;;
5898;SDS011;2975;50.956;6.962;2023-05-10T15:14:49;2.33;;;1.37;;
5898;SDS011;2975;50.956;6.962;2023-05-10T15:17:14;1.50;;;1.40;;
5898;SDS011;2975;50.956;6.962;2023-05-10T15:19:41;4.33;;;3.10;;
5898;SDS011;2975;50.956;6.962;2023-05-10T15:22:07;5.73;;;4.57;;
5898;SDS011;2975;50.956;6.962;2023-05-10T15:24:32;5.07;;;4.00;;
5898;SDS011;2975;50.956;6.962;2023-05-10T15:26:58;5.93;;;4.57;;
5898;SDS011;2975;50.956;6.962;2023-05-10T15:29:23;2.47;;;2.27;;
5898;SDS011;2975;50.956;6.962;2023-05-10T15:31:49;7.03;;;3.60;;
5898;SDS011;2975;50.956;6.962;2023-05-10T15:34:16;5.40;;;3.93;;
5898;SDS011;2975;50.956;6.962;2023-05-10T15:36:42;3.80;;;3.03;;